Bethlehem, New Hampshire
Current Conditions -  °F | °C
As of 7:52 PM on Saturday 22 Nov 2014 (Local Time) from KHIE Reporting Station
Overcast Overcast  
Wind Chill:   Ceiling: 3100
Heat Index:   Visibility: 10mi
Dew Point: -4°   Wind: 8mph
Humidity: 55%   Direction: 240°WSW
Pressure: 29.93"   Gusts: NA
Location:  44.28°N, 71.69°W
Report Text: KHIE 230052Z AUTO 24007KT 10SM OVC031 04/M04 A2993 RMK AO2 SLP151 T00391044
Loading
Personal Weather Stations






























Interactive Weather Map New forecast layout! Learn more

10-Day Weather Forecast

Advertisements
Track Severe Weather on mobile